Weer

Current Metar

EHAM: EHAM 280955Z 31011KT 270V350 9999 FEW022 09/04 Q1013 NOSIG
EHRD: EHRD 280955Z AUTO 32008KT 260V010 9999 FEW030 10/04 Q1014 NOSIG
EHGG: EHGG 280955Z AUTO 30006KT 270V330 9999 SCT024 BKN029 OVC033 09/05 Q1012 TEMPO -SHRA FEW030TCU
EHEH: EHEH 280955Z AUTO VRB05KT 9999 FEW066 BKN071 11/04 Q1014 BLU 30010KT 9999 FEW008 SCT020 BKN035 TEMPO FEW012 SCT015CB SCTO025
EHBK: EHBK 280955Z AUTO 19007KT 150V230 9999 BKN015 BKN020 BKN026 10/06 Q1014 NOSIG

Search METAR


Wind Charts

+ 0600h
FL100 FL180 FL240 FL300 FL340

+ 1200h
FL100 FL180 FL240 FL300 FL340

+ 1800h
FL100 FL180 FL240 FL300 FL340

+ 2400h
FL100 FL180 FL240 FL300 FL340

Europe & Africa charts only, updated daily.

 

Weather Services

MET Office